createdAt,value
2019-05-14T00:00:06.121Z,970.86
2019-05-14T00:01:06.094Z,970.85
2019-05-14T00:02:06.068Z,970.81
2019-05-14T00:03:06.041Z,970.87
2019-05-14T00:04:06.016Z,970.84
2019-05-14T00:05:05.990Z,970.82
2019-05-14T00:06:05.965Z,970.79
2019-05-14T00:07:05.936Z,970.75
2019-05-14T00:08:05.910Z,970.77
2019-05-14T00:09:05.883Z,970.78
2019-05-14T00:10:05.860Z,970.82
2019-05-14T00:11:07.332Z,970.76
2019-05-14T00:12:05.805Z,970.75
2019-05-14T00:13:05.779Z,970.77
2019-05-14T00:14:05.753Z,970.76
2019-05-14T00:15:05.727Z,970.75
2019-05-14T00:16:05.699Z,970.76
2019-05-14T00:17:05.673Z,970.73
2019-05-14T00:18:05.649Z,970.76
2019-05-14T00:19:05.620Z,970.72
2019-05-14T00:20:09.867Z,970.75
2019-05-14T00:21:05.567Z,970.76
2019-05-14T00:22:05.540Z,970.75
2019-05-14T00:23:05.515Z,970.77
2019-05-14T00:24:05.487Z,970.76
2019-05-14T00:25:05.462Z,970.76
2019-05-14T00:26:05.436Z,970.73
2019-05-14T00:27:05.410Z,970.73
2019-05-14T00:28:06.886Z,970.73
2019-05-14T00:29:05.361Z,970.69
2019-05-14T00:30:05.340Z,970.68
2019-05-14T00:31:05.306Z,970.70
2019-05-14T00:32:05.277Z,970.68
2019-05-14T00:33:05.253Z,970.68
2019-05-14T00:34:05.976Z,970.65
2019-05-14T00:35:05.198Z,970.67
2019-05-14T00:36:05.171Z,970.64
2019-05-14T00:37:05.145Z,970.64
2019-05-14T00:38:05.120Z,970.60
2019-05-14T00:39:05.092Z,970.61
2019-05-14T00:40:05.066Z,970.58
2019-05-14T00:41:05.040Z,970.56
2019-05-14T00:42:05.016Z,970.55
2019-05-14T00:43:04.987Z,970.54
2019-05-14T00:44:04.960Z,970.54
2019-05-14T00:45:04.933Z,970.53
2019-05-14T00:46:04.908Z,970.51
2019-05-14T00:47:04.880Z,970.50
2019-05-14T00:48:04.854Z,970.54
2019-05-14T00:49:04.827Z,970.48
2019-05-14T00:50:04.801Z,970.49
2019-05-14T00:51:04.774Z,970.54
2019-05-14T00:52:04.748Z,970.51
2019-05-14T00:53:04.723Z,970.54
2019-05-14T00:54:04.696Z,970.52
2019-05-14T00:55:07.371Z,970.57
2019-05-14T00:56:04.642Z,970.54
2019-05-14T00:57:04.616Z,970.51
2019-05-14T00:58:04.590Z,970.49
2019-05-14T00:59:04.565Z,970.48
2019-05-14T01:00:04.544Z,970.49
2019-05-14T01:01:04.510Z,970.50
2019-05-14T01:02:04.485Z,970.52
2019-05-14T01:03:04.465Z,970.52
2019-05-14T01:04:04.430Z,970.54
2019-05-14T01:05:04.407Z,970.56
2019-05-14T01:06:04.378Z,970.54
2019-05-14T01:07:04.351Z,970.60
2019-05-14T01:08:04.324Z,970.56
2019-05-14T01:09:04.298Z,970.53
2019-05-14T01:10:04.272Z,970.55
2019-05-14T01:11:04.244Z,970.55
2019-05-14T01:12:04.218Z,970.50
2019-05-14T01:13:04.191Z,970.50
2019-05-14T01:14:04.165Z,970.53
2019-05-14T01:15:10.729Z,970.48
2019-05-14T01:16:04.112Z,970.48
2019-05-14T01:17:04.085Z,970.48
2019-05-14T01:18:04.059Z,970.46
2019-05-14T01:19:04.031Z,970.44
2019-05-14T01:20:04.006Z,970.50
2019-05-14T01:21:03.980Z,970.53
2019-05-14T01:22:04.703Z,970.52
2019-05-14T01:23:03.925Z,970.52
2019-05-14T01:24:03.899Z,970.52
2019-05-14T01:25:03.874Z,970.47
2019-05-14T01:26:03.847Z,970.47
2019-05-14T01:27:03.818Z,970.46
2019-05-14T01:28:03.794Z,970.50
2019-05-14T01:29:03.768Z,970.48
2019-05-14T01:30:03.742Z,970.53
2019-05-14T01:31:03.713Z,970.49
2019-05-14T01:32:03.686Z,970.49
2019-05-14T01:33:03.659Z,970.48
2019-05-14T01:34:03.634Z,970.48
2019-05-14T01:35:03.610Z,970.49
2019-05-14T01:36:03.579Z,970.43
2019-05-14T01:37:03.587Z,970.42
2019-05-14T01:38:03.528Z,970.44
2019-05-14T01:39:03.499Z,970.37
2019-05-14T01:40:03.478Z,970.38
2019-05-14T01:41:03.455Z,970.38
2019-05-14T01:42:03.423Z,970.39
2019-05-14T01:43:03.396Z,970.34
2019-05-14T01:44:03.367Z,970.39
2019-05-14T01:45:03.340Z,970.39
2019-05-14T01:46:03.314Z,970.39
2019-05-14T01:47:03.286Z,970.41
2019-05-14T01:48:03.259Z,970.38
2019-05-14T01:49:03.983Z,970.34
2019-05-14T01:50:03.207Z,970.37
2019-05-14T01:51:03.179Z,970.38
2019-05-14T01:52:03.161Z,970.38
2019-05-14T01:53:03.128Z,970.38
2019-05-14T01:54:03.101Z,970.41
2019-05-14T01:55:03.073Z,970.41
2019-05-14T01:56:03.046Z,970.33
2019-05-14T01:57:03.021Z,970.34
2019-05-14T01:58:02.995Z,970.34
2019-05-14T01:59:02.965Z,970.30
2019-05-14T02:00:02.946Z,970.33
2019-05-14T02:01:02.916Z,970.36
2019-05-14T02:02:02.887Z,970.34
2019-05-14T02:03:02.859Z,970.30
2019-05-14T02:04:02.832Z,970.28
2019-05-14T02:05:02.805Z,970.32
2019-05-14T02:06:02.779Z,970.24
2019-05-14T02:07:02.751Z,970.29
2019-05-14T02:08:02.724Z,970.24
2019-05-14T02:09:02.698Z,970.27
2019-05-14T02:10:02.672Z,970.25
2019-05-14T02:11:02.644Z,970.22
2019-05-14T02:12:02.617Z,970.24
2019-05-14T02:13:02.618Z,970.23
2019-05-14T02:14:02.628Z,970.17
2019-05-14T02:15:02.537Z,970.12
2019-05-14T02:16:02.904Z,970.17
2019-05-14T02:17:02.489Z,970.13
2019-05-14T02:18:02.564Z,970.15
2019-05-14T02:19:02.429Z,970.15
2019-05-14T02:20:02.403Z,970.14
2019-05-14T02:21:02.376Z,970.14
2019-05-14T02:22:02.353Z,970.16
2019-05-14T02:23:02.322Z,970.12
2019-05-14T02:24:02.297Z,970.19
2019-05-14T02:25:02.487Z,970.15
2019-05-14T02:26:02.708Z,970.12
2019-05-14T02:27:02.236Z,970.09
2019-05-14T02:28:02.187Z,970.11
2019-05-14T02:29:02.180Z,970.12
2019-05-14T02:30:02.353Z,970.11
2019-05-14T02:31:03.858Z,970.15
2019-05-14T02:32:02.117Z,970.10
2019-05-14T02:33:02.063Z,970.09
2019-05-14T02:34:02.041Z,970.11
2019-05-14T02:35:02.005Z,970.07
2019-05-14T02:36:01.977Z,970.07
2019-05-14T02:37:02.700Z,970.10
2019-05-14T02:38:01.920Z,970.08
2019-05-14T02:39:01.895Z,970.09
2019-05-14T02:40:01.875Z,970.06
2019-05-14T02:41:01.839Z,970.05
2019-05-14T02:42:01.819Z,970.11
2019-05-14T02:43:01.786Z,970.08
2019-05-14T02:44:01.758Z,970.03
2019-05-14T02:45:01.731Z,970.03
2019-05-14T02:46:11.429Z,970.02
2019-05-14T02:47:01.676Z,970.02
2019-05-14T02:48:01.655Z,970.00
2019-05-14T02:49:01.625Z,969.95
2019-05-14T02:50:01.603Z,969.94
2019-05-14T02:51:01.569Z,969.92
2019-05-14T02:52:01.545Z,969.88
2019-05-14T02:53:01.528Z,969.89
2019-05-14T02:54:01.489Z,969.87
2019-05-14T02:55:01.463Z,969.82
2019-05-14T02:56:01.445Z,969.85
2019-05-14T02:57:01.408Z,969.87
2019-05-14T02:58:01.383Z,969.84
2019-05-14T02:59:05.594Z,969.86
2019-05-14T03:00:01.340Z,969.82
2019-05-14T03:01:01.300Z,969.81
2019-05-14T03:02:01.274Z,969.85
2019-05-14T03:03:01.246Z,969.84
2019-05-14T03:04:01.220Z,969.81
2019-05-14T03:05:01.193Z,969.81
2019-05-14T03:06:01.173Z,969.77
2019-05-14T03:07:01.142Z,969.73
2019-05-14T03:08:01.114Z,969.77
2019-05-14T03:09:01.087Z,969.78
2019-05-14T03:10:01.058Z,969.79
2019-05-14T03:11:01.034Z,969.78
2019-05-14T03:12:01.004Z,969.76
2019-05-14T03:13:00.975Z,969.70
2019-05-14T03:14:00.952Z,969.76
2019-05-14T03:15:00.922Z,969.77
2019-05-14T03:16:19.072Z,969.74
2019-05-14T03:17:00.868Z,969.77
2019-05-14T03:18:00.842Z,969.75
2019-05-14T03:19:00.814Z,969.72
2019-05-14T03:20:00.794Z,969.72
2019-05-14T03:21:01.204Z,969.70
2019-05-14T03:22:00.734Z,969.74
2019-05-14T03:23:08.470Z,969.69
2019-05-14T03:24:01.027Z,969.69
2019-05-14T03:25:00.655Z,969.71
2019-05-14T03:26:01.030Z,969.73
2019-05-14T03:27:00.597Z,969.74
2019-05-14T03:28:00.580Z,969.76
2019-05-14T03:29:00.555Z,969.71
2019-05-14T03:30:00.518Z,969.71
2019-05-14T03:31:02.778Z,969.73
2019-05-14T03:32:03.031Z,969.68
2019-05-14T03:33:02.719Z,969.70
2019-05-14T03:34:02.696Z,969.71
2019-05-14T03:35:03.701Z,969.68
2019-05-14T03:36:08.430Z,969.67
2019-05-14T03:37:03.092Z,969.64
2019-05-14T03:38:00.707Z,969.71
2019-05-14T03:39:00.273Z,969.67
2019-05-14T03:40:00.245Z,969.66
2019-05-14T03:41:00.648Z,969.69
2019-05-14T03:42:00.190Z,969.69
2019-05-14T03:43:00.165Z,969.67
2019-05-14T03:44:00.399Z,969.72
2019-05-14T03:45:00.134Z,969.73
2019-05-14T03:46:00.085Z,969.75
2019-05-14T03:47:04.669Z,969.75
2019-05-14T03:48:00.029Z,969.72
2019-05-14T03:49:00.386Z,969.74
2019-05-14T03:49:59.975Z,969.75
2019-05-14T03:51:00.544Z,969.71
2019-05-14T03:52:00.581Z,969.71
2019-05-14T03:52:59.894Z,969.72
2019-05-14T03:54:05.947Z,969.73
2019-05-14T03:55:04.450Z,969.74
2019-05-14T03:56:00.242Z,969.76
2019-05-14T03:57:00.520Z,969.78
2019-05-14T03:57:59.829Z,969.78
2019-05-14T03:59:00.154Z,969.81
2019-05-14T04:00:00.183Z,969.84
2019-05-14T04:01:00.611Z,969.82
2019-05-14T04:02:00.007Z,969.77
2019-05-14T04:03:00.345Z,969.75
2019-05-14T04:03:59.594Z,969.72
2019-05-14T04:05:00.093Z,969.73
2019-05-14T04:05:59.651Z,969.70
2019-05-14T04:07:00.026Z,969.71
2019-05-14T04:08:00.260Z,969.67
2019-05-14T04:09:00.534Z,969.68
2019-05-14T04:09:59.891Z,969.71
2019-05-14T04:10:59.461Z,969.69
2019-05-14T04:11:59.629Z,969.70
2019-05-14T04:13:00.104Z,969.70
2019-05-14T04:14:00.319Z,969.72
2019-05-14T04:14:59.768Z,969.79
2019-05-14T04:16:00.159Z,969.79
2019-05-14T04:17:08.882Z,969.75
2019-05-14T04:17:59.736Z,969.79
2019-05-14T04:18:59.647Z,969.78
2019-05-14T04:20:00.092Z,969.76
2019-05-14T04:20:59.680Z,969.77
2019-05-14T04:21:59.823Z,969.81
2019-05-14T04:23:00.027Z,969.84
2019-05-14T04:23:59.590Z,969.84
2019-05-14T04:24:59.661Z,969.77
2019-05-14T04:26:00.623Z,969.81
2019-05-14T04:27:07.135Z,969.87
2019-05-14T04:27:59.762Z,969.84
2019-05-14T04:29:00.444Z,969.90
2019-05-14T04:29:59.056Z,969.94
2019-05-14T04:30:59.655Z,969.86
2019-05-14T04:32:00.219Z,969.88
2019-05-14T04:32:59.503Z,969.90
2019-05-14T04:33:59.378Z,969.96
2019-05-14T04:34:59.768Z,969.92
2019-05-14T04:35:59.879Z,969.88
2019-05-14T04:36:59.427Z,969.89
2019-05-14T04:37:58.968Z,969.86
2019-05-14T04:39:00.561Z,969.88
2019-05-14T04:39:59.416Z,969.86
2019-05-14T04:40:59.746Z,969.85
2019-05-14T04:42:00.012Z,969.86
2019-05-14T04:42:59.237Z,969.84
2019-05-14T04:43:59.452Z,969.84
2019-05-14T04:45:00.773Z,969.84
2019-05-14T04:45:59.294Z,969.87
2019-05-14T04:46:59.986Z,969.86
2019-05-14T04:48:00.166Z,969.85
2019-05-14T04:48:59.119Z,969.86
2019-05-14T04:49:59.107Z,969.88
2019-05-14T04:51:00.430Z,969.84
2019-05-14T04:51:59.494Z,969.89
2019-05-14T04:52:59.934Z,969.89
2019-05-14T04:53:59.766Z,969.91
2019-05-14T04:54:59.447Z,969.90
2019-05-14T04:56:00.063Z,969.93
2019-05-14T04:56:59.919Z,969.92
2019-05-14T04:57:59.142Z,969.98
2019-05-14T04:58:59.592Z,969.97
2019-05-14T04:59:59.850Z,969.99
2019-05-14T05:01:00.732Z,969.98
2019-05-14T05:02:00.132Z,969.92
2019-05-14T05:02:59.967Z,969.84
2019-05-14T05:03:59.101Z,969.89
2019-05-14T05:04:59.383Z,969.85
2019-05-14T05:05:58.974Z,969.89
2019-05-14T05:07:04.630Z,969.83
2019-05-14T05:07:59.679Z,969.84
2019-05-14T05:09:00.159Z,969.85
2019-05-14T05:09:59.391Z,969.85
2019-05-14T05:10:59.917Z,969.88
2019-05-14T05:11:59.737Z,969.87
2019-05-14T05:12:58.636Z,969.88
2019-05-14T05:13:59.292Z,969.94
2019-05-14T05:14:58.606Z,969.90
2019-05-14T05:15:59.345Z,969.91
2019-05-14T05:16:59.815Z,969.87
2019-05-14T05:17:58.903Z,969.86
2019-05-14T05:18:59.426Z,969.88
2019-05-14T05:19:59.395Z,969.87
2019-05-14T05:20:58.314Z,969.83
2019-05-14T05:21:58.699Z,969.79
2019-05-14T05:22:59.051Z,969.77
2019-05-14T05:23:58.562Z,969.76
2019-05-14T05:24:58.974Z,969.75
2019-05-14T05:25:58.602Z,969.72
2019-05-14T05:26:58.564Z,969.72
2019-05-14T05:27:59.656Z,969.73
2019-05-14T05:29:03.665Z,969.73
2019-05-14T05:29:58.986Z,969.69
2019-05-14T05:30:58.541Z,969.71
2019-05-14T05:31:59.388Z,969.75
2019-05-14T05:32:59.498Z,969.74
2019-05-14T05:33:58.207Z,969.70
2019-05-14T05:34:58.611Z,969.76
2019-05-14T05:35:59.319Z,969.74
2019-05-14T05:36:59.240Z,969.80
2019-05-14T05:37:58.350Z,969.75
2019-05-14T05:38:59.296Z,969.83
2019-05-14T05:39:58.332Z,969.79
2019-05-14T05:40:59.959Z,969.78
2019-05-14T05:41:58.477Z,969.77
2019-05-14T05:42:58.063Z,969.82
2019-05-14T05:43:58.943Z,969.79
2019-05-14T05:44:58.750Z,969.88
2019-05-14T05:45:59.049Z,969.80
2019-05-14T05:46:59.459Z,969.83
2019-05-14T05:48:01.023Z,969.82
2019-05-14T05:48:58.783Z,969.82
2019-05-14T05:49:58.145Z,969.87
2019-05-14T05:50:58.837Z,969.85
2019-05-14T05:51:58.896Z,969.84
2019-05-14T05:52:58.556Z,969.87
2019-05-14T05:53:58.656Z,969.90
2019-05-14T05:54:58.434Z,969.90
2019-05-14T05:55:59.000Z,969.88
2019-05-14T05:56:58.112Z,969.84
2019-05-14T05:57:58.621Z,969.82
2019-05-14T05:58:56.472Z,969.84
2019-05-14T05:59:58.745Z,969.82
2019-05-14T06:00:58.976Z,969.81
2019-05-14T06:01:58.692Z,969.81
2019-05-14T06:02:56.366Z,969.82
2019-05-14T06:03:58.356Z,969.80
2019-05-14T06:04:58.503Z,969.72
2019-05-14T06:05:56.294Z,969.72
2019-05-14T06:06:59.077Z,969.69
2019-05-14T06:07:58.837Z,969.71
2019-05-14T06:08:58.420Z,969.68
2019-05-14T06:09:58.646Z,969.66
2019-05-14T06:10:56.153Z,969.67
2019-05-14T06:11:56.127Z,969.62
2019-05-14T06:12:58.408Z,969.63
2019-05-14T06:13:56.074Z,969.64
2019-05-14T06:14:57.910Z,969.61
2019-05-14T06:15:58.858Z,969.64
2019-05-14T06:16:55.995Z,969.66
2019-05-14T06:18:11.500Z,969.65
2019-05-14T06:18:55.941Z,969.69
2019-05-14T06:19:55.915Z,969.65
2019-05-14T06:20:58.337Z,969.64
2019-05-14T06:21:55.864Z,969.62
2019-05-14T06:22:55.836Z,969.60
2019-05-14T06:23:58.074Z,969.64
2019-05-14T06:24:55.784Z,969.60
2019-05-14T06:25:55.758Z,969.63
2019-05-14T06:26:55.732Z,969.63
2019-05-14T06:27:55.705Z,969.59
2019-05-14T06:28:55.680Z,969.56
2019-05-14T06:29:58.118Z,969.61
2019-05-14T06:30:55.627Z,969.55
2019-05-14T06:31:55.601Z,969.56
2019-05-14T06:32:55.576Z,969.61
2019-05-14T06:33:55.550Z,969.54
2019-05-14T06:34:55.527Z,969.60
2019-05-14T06:35:55.497Z,969.47
2019-05-14T06:36:55.471Z,969.52
2019-05-14T06:37:55.445Z,969.53
2019-05-14T06:38:55.417Z,969.51
2019-05-14T06:39:55.392Z,969.49
2019-05-14T06:40:55.367Z,969.57
2019-05-14T06:41:55.340Z,969.61
2019-05-14T06:42:55.313Z,969.54
2019-05-14T06:43:55.289Z,969.51
2019-05-14T06:44:55.263Z,969.58
2019-05-14T06:45:55.237Z,969.53
2019-05-14T06:46:55.211Z,969.52
2019-05-14T06:47:55.185Z,969.57
2019-05-14T06:48:55.161Z,969.51
2019-05-14T06:49:55.134Z,969.51
2019-05-14T06:50:55.106Z,969.58
2019-05-14T06:51:55.082Z,969.54
2019-05-14T06:52:55.056Z,969.56
2019-05-14T06:53:55.030Z,969.56
2019-05-14T06:54:55.005Z,969.55
2019-05-14T06:55:54.978Z,969.52
2019-05-14T06:56:54.953Z,969.55
2019-05-14T06:57:54.927Z,969.50
2019-05-14T06:58:54.900Z,969.50
2019-05-14T06:59:54.875Z,969.55
2019-05-14T07:00:54.850Z,969.53
2019-05-14T07:01:54.828Z,969.58
2019-05-14T07:02:54.797Z,969.54
2019-05-14T07:03:54.773Z,969.57
2019-05-14T07:04:54.749Z,969.57
2019-05-14T07:05:54.728Z,969.59
2019-05-14T07:06:54.696Z,969.57
2019-05-14T07:07:54.671Z,969.58
2019-05-14T07:08:54.646Z,969.59
2019-05-14T07:09:54.620Z,969.45
2019-05-14T07:10:54.596Z,969.53
2019-05-14T07:11:54.569Z,969.55
2019-05-14T07:12:54.544Z,969.53
2019-05-14T07:13:54.519Z,969.56
2019-05-14T07:14:54.492Z,969.45
2019-05-14T07:15:54.467Z,969.57
2019-05-14T07:16:54.444Z,969.54
2019-05-14T07:17:54.422Z,969.43
2019-05-14T07:18:54.496Z,969.45
2019-05-14T07:19:54.365Z,969.53
2019-05-14T07:20:54.340Z,969.46
2019-05-14T07:21:54.315Z,969.46
2019-05-14T07:22:54.289Z,969.46
2019-05-14T07:23:54.264Z,969.42
2019-05-14T07:24:54.242Z,969.44
2019-05-14T07:25:54.214Z,969.34
2019-05-14T07:26:54.188Z,969.41
2019-05-14T07:27:54.163Z,969.39
2019-05-14T07:28:54.138Z,969.40
2019-05-14T07:29:54.113Z,969.30
2019-05-14T07:30:54.087Z,969.45
2019-05-14T07:31:54.062Z,969.34
2019-05-14T07:32:54.038Z,969.35
2019-05-14T07:33:54.012Z,969.40
2019-05-14T07:34:53.994Z,969.35
2019-05-14T07:35:53.961Z,969.34
2019-05-14T07:36:53.946Z,969.35
2019-05-14T07:37:53.914Z,969.34
2019-05-14T07:38:56.502Z,969.35
2019-05-14T07:39:53.861Z,969.29
2019-05-14T07:40:53.836Z,969.38
2019-05-14T07:41:53.811Z,969.36
2019-05-14T07:42:53.785Z,969.35
2019-05-14T07:43:53.760Z,969.30
2019-05-14T07:44:53.735Z,969.29
2019-05-14T07:45:53.713Z,969.36
2019-05-14T07:46:53.685Z,969.26
2019-05-14T07:47:53.661Z,969.25
2019-05-14T07:49:04.314Z,969.21
2019-05-14T07:49:53.613Z,969.29
2019-05-14T07:50:53.586Z,969.23
2019-05-14T07:51:53.561Z,969.21
2019-05-14T07:52:55.804Z,969.26
2019-05-14T07:53:53.513Z,969.29
2019-05-14T07:54:53.486Z,969.28
2019-05-14T07:55:53.461Z,969.27
2019-05-14T07:56:53.480Z,969.20
2019-05-14T07:57:53.412Z,969.20
2019-05-14T07:58:58.450Z,969.21
2019-05-14T07:59:53.361Z,969.23
2019-05-14T08:00:53.337Z,969.21
2019-05-14T08:01:53.314Z,969.24
2019-05-14T08:02:53.288Z,969.18
2019-05-14T08:03:53.262Z,969.12
2019-05-14T08:04:55.489Z,969.21
2019-05-14T08:05:53.213Z,969.14
2019-05-14T08:06:53.187Z,969.09
2019-05-14T08:07:53.163Z,969.26
2019-05-14T08:08:53.139Z,969.09
2019-05-14T08:09:53.114Z,969.08
2019-05-14T08:10:53.089Z,969.13
2019-05-14T08:11:53.064Z,969.19
2019-05-14T08:12:53.044Z,969.10
2019-05-14T08:13:53.015Z,969.12
2019-05-14T08:15:10.945Z,969.16
2019-05-14T08:15:52.965Z,969.12
2019-05-14T08:16:52.946Z,969.14
2019-05-14T08:17:52.918Z,969.10
2019-05-14T08:18:52.891Z,969.17
2019-05-14T08:19:52.866Z,969.19
2019-05-14T08:20:52.842Z,969.14
2019-05-14T08:21:52.817Z,969.13
2019-05-14T08:22:52.793Z,969.02
2019-05-14T08:23:52.768Z,969.05
2019-05-14T08:24:52.744Z,969.09
2019-05-14T08:25:52.719Z,969.12
2019-05-14T08:26:52.696Z,969.00
2019-05-14T08:27:52.670Z,968.92
2019-05-14T08:28:52.646Z,968.97
2019-05-14T08:29:52.621Z,968.92
2019-05-14T08:30:52.596Z,968.93
2019-05-14T08:31:52.573Z,968.93
2019-05-14T08:32:52.547Z,968.99
2019-05-14T08:33:52.524Z,968.92
2019-05-14T08:34:52.497Z,968.84
2019-05-14T08:35:52.475Z,968.88
2019-05-14T08:36:52.451Z,968.82
2019-05-14T08:38:04.602Z,968.82
2019-05-14T08:38:52.402Z,968.83
2019-05-14T08:39:52.378Z,968.88
2019-05-14T08:40:52.360Z,968.85
2019-05-14T08:41:59.528Z,968.88
2019-05-14T08:42:52.304Z,968.80
2019-05-14T08:43:52.281Z,968.83
2019-05-14T08:44:52.256Z,968.79
2019-05-14T08:45:52.233Z,968.68
2019-05-14T08:46:52.210Z,968.86
2019-05-14T08:47:52.187Z,968.77
2019-05-14T08:48:52.168Z,968.77
2019-05-14T08:49:52.232Z,968.83
2019-05-14T08:50:52.111Z,968.79
2019-05-14T08:51:52.087Z,968.76
2019-05-14T08:52:52.064Z,968.75
2019-05-14T08:53:52.054Z,968.70
2019-05-14T08:55:05.600Z,968.79
2019-05-14T08:55:51.991Z,968.85
2019-05-14T08:56:51.982Z,968.74
2019-05-14T08:57:52.017Z,968.73
2019-05-14T08:58:51.920Z,968.76
2019-05-14T08:59:51.897Z,968.77
2019-05-14T09:00:51.878Z,968.75
2019-05-14T09:02:01.721Z,968.81
2019-05-14T09:02:51.824Z,968.80
2019-05-14T09:03:51.804Z,968.87
2019-05-14T09:04:54.703Z,968.82
2019-05-14T09:05:51.755Z,968.78
2019-05-14T09:06:51.729Z,968.84
2019-05-14T09:07:52.456Z,968.80
2019-05-14T09:08:51.682Z,968.81
2019-05-14T09:09:51.659Z,968.79
2019-05-14T09:10:51.650Z,968.83
2019-05-14T09:11:51.611Z,968.75
2019-05-14T09:12:51.587Z,968.75
2019-05-14T09:13:51.570Z,968.89
2019-05-14T09:14:51.541Z,968.76
2019-05-14T09:15:51.517Z,968.86
2019-05-14T09:16:51.605Z,968.91
2019-05-14T09:17:51.470Z,968.77
2019-05-14T09:18:51.446Z,968.78
2019-05-14T09:20:02.465Z,968.76
2019-05-14T09:20:51.399Z,968.75
2019-05-14T09:21:51.380Z,968.85
2019-05-14T09:22:51.353Z,968.74
2019-05-14T09:23:51.327Z,968.71
2019-05-14T09:24:51.313Z,968.71
2019-05-14T09:25:53.409Z,968.70
2019-05-14T09:26:51.258Z,968.70
2019-05-14T09:27:51.238Z,968.63
2019-05-14T09:28:51.211Z,968.63
2019-05-14T09:29:51.188Z,968.74
2019-05-14T09:30:51.165Z,968.73
2019-05-14T09:31:51.142Z,968.70
2019-05-14T09:32:51.118Z,968.73
2019-05-14T09:33:51.118Z,968.70
2019-05-14T09:34:51.071Z,968.73
2019-05-14T09:36:07.997Z,968.73
2019-05-14T09:36:51.027Z,968.68
2019-05-14T09:37:51.568Z,968.72
2019-05-14T09:38:50.980Z,968.75
2019-05-14T09:39:50.955Z,968.63
2019-05-14T09:41:07.168Z,968.60
2019-05-14T09:41:50.909Z,968.65
2019-05-14T09:42:50.884Z,968.67
2019-05-14T09:43:50.861Z,968.68
2019-05-14T09:44:50.838Z,968.60
2019-05-14T09:45:50.815Z,968.69
2019-05-14T09:46:50.791Z,968.82
2019-05-14T09:47:50.907Z,968.77
2019-05-14T09:48:50.745Z,968.72
2019-05-14T09:49:50.723Z,968.78
2019-05-14T09:50:51.449Z,968.73
2019-05-14T09:51:50.679Z,968.70
2019-05-14T09:52:50.655Z,968.76
2019-05-14T09:53:50.631Z,968.67
2019-05-14T09:54:50.605Z,968.72
2019-05-14T09:55:50.581Z,968.76
2019-05-14T09:56:50.560Z,968.65
2019-05-14T09:57:50.538Z,968.71
2019-05-14T09:58:50.512Z,968.57
2019-05-14T09:59:50.489Z,968.78
2019-05-14T10:00:50.471Z,968.73
2019-05-14T10:01:51.197Z,968.77
2019-05-14T10:02:50.420Z,968.67
2019-05-14T10:03:50.400Z,968.80
2019-05-14T10:04:50.374Z,968.66
2019-05-14T10:05:50.352Z,968.76
2019-05-14T10:06:50.328Z,968.73
2019-05-14T10:07:50.305Z,968.69
2019-05-14T10:08:50.283Z,968.77
2019-05-14T10:09:50.259Z,968.59
2019-05-14T10:10:50.238Z,968.74
2019-05-14T10:11:50.213Z,968.66
2019-05-14T10:12:56.415Z,968.71
2019-05-14T10:13:50.167Z,968.72
2019-05-14T10:14:50.143Z,968.78
2019-05-14T10:15:50.121Z,968.76
2019-05-14T10:16:50.099Z,968.68
2019-05-14T10:17:50.226Z,968.68
2019-05-14T10:18:52.815Z,968.59
2019-05-14T10:19:50.140Z,968.62
2019-05-14T10:20:50.015Z,968.58
2019-05-14T10:21:49.983Z,968.70
2019-05-14T10:22:54.465Z,968.71
2019-05-14T10:23:49.941Z,968.66
2019-05-14T10:24:49.914Z,968.63
2019-05-14T10:25:49.897Z,968.69
2019-05-14T10:26:49.893Z,968.67
2019-05-14T10:27:49.846Z,968.78
2019-05-14T10:28:51.326Z,968.69
2019-05-14T10:29:49.801Z,968.74
2019-05-14T10:30:49.777Z,968.69
2019-05-14T10:31:49.755Z,968.63
2019-05-14T10:32:49.737Z,968.67
2019-05-14T10:33:49.710Z,968.64
2019-05-14T10:34:51.189Z,968.65
2019-05-14T10:35:49.664Z,968.65
2019-05-14T10:36:49.642Z,968.61
2019-05-14T10:37:49.619Z,968.70
2019-05-14T10:38:49.597Z,968.70
2019-05-14T10:39:49.573Z,968.72
2019-05-14T10:40:49.551Z,968.63
2019-05-14T10:41:49.528Z,968.61
2019-05-14T10:42:49.631Z,968.59
2019-05-14T10:43:49.887Z,968.63
2019-05-14T10:44:49.460Z,968.60
2019-05-14T10:45:49.583Z,968.58
2019-05-14T10:46:49.417Z,968.60
2019-05-14T10:47:49.571Z,968.68
2019-05-14T10:48:49.371Z,968.60
2019-05-14T10:49:49.348Z,968.74
2019-05-14T10:50:57.301Z,968.67
2019-05-14T10:51:49.302Z,968.77
2019-05-14T10:52:49.285Z,968.63
2019-05-14T10:53:49.359Z,968.69
2019-05-14T10:54:55.849Z,968.69
2019-05-14T10:55:49.214Z,968.73
2019-05-14T10:56:49.942Z,968.73
2019-05-14T10:57:54.166Z,968.69
2019-05-14T10:58:49.304Z,968.67
2019-05-14T10:59:49.125Z,968.75
2019-05-14T11:00:49.605Z,968.71
2019-05-14T11:01:49.101Z,968.74
2019-05-14T11:02:49.274Z,968.71
2019-05-14T11:03:49.035Z,968.60
2019-05-14T11:04:49.016Z,968.88
2019-05-14T11:05:48.999Z,968.73
2019-05-14T11:06:49.218Z,968.68
2019-05-14T11:07:48.949Z,968.60
2019-05-14T11:08:49.443Z,968.59
2019-05-14T11:09:48.904Z,968.59
2019-05-14T11:10:49.768Z,968.61
2019-05-14T11:11:48.861Z,968.61
2019-05-14T11:12:50.660Z,968.56
2019-05-14T11:13:48.816Z,968.38
2019-05-14T11:14:49.407Z,968.51
2019-05-14T11:15:48.922Z,968.49
2019-05-14T11:16:48.751Z,968.39
2019-05-14T11:17:48.941Z,968.53
2019-05-14T11:18:49.679Z,968.49
2019-05-14T11:19:48.683Z,968.50
2019-05-14T11:20:51.499Z,968.59
2019-05-14T11:21:48.639Z,968.50
2019-05-14T11:22:49.241Z,968.52
2019-05-14T11:23:49.218Z,968.44
2019-05-14T11:24:49.128Z,968.43
2019-05-14T11:25:48.820Z,968.49
2019-05-14T11:26:49.003Z,968.43
2019-05-14T11:27:49.288Z,968.45
2019-05-14T11:28:49.122Z,968.51
2019-05-14T11:29:49.159Z,968.38
2019-05-14T11:30:49.451Z,968.33
2019-05-14T11:31:48.722Z,968.42
2019-05-14T11:32:49.253Z,968.41
2019-05-14T11:33:49.786Z,968.55
2019-05-14T11:34:49.857Z,968.46
2019-05-14T11:35:48.333Z,968.51
2019-05-14T11:36:49.765Z,968.43
2019-05-14T11:37:48.290Z,968.50
2019-05-14T11:38:50.828Z,968.48
2019-05-14T11:39:48.824Z,968.40
2019-05-14T11:40:49.551Z,968.40
2019-05-14T11:41:49.255Z,968.33
2019-05-14T11:42:49.508Z,968.33
2019-05-14T11:43:49.223Z,968.37
2019-05-14T11:44:48.837Z,968.31
2019-05-14T11:45:48.647Z,968.35
2019-05-14T11:46:57.171Z,968.30
2019-05-14T11:47:48.870Z,968.26
2019-05-14T11:48:49.048Z,968.17
2019-05-14T11:49:49.260Z,968.16
2019-05-14T11:50:49.165Z,968.19
2019-05-14T11:52:01.003Z,968.26
2019-05-14T11:52:48.471Z,968.18
2019-05-14T11:53:49.401Z,968.19
2019-05-14T11:54:49.371Z,968.24
2019-05-14T11:55:50.230Z,968.15
2019-05-14T11:56:48.630Z,968.20
2019-05-14T11:57:48.559Z,968.21
2019-05-14T11:58:47.833Z,968.25
2019-05-14T11:59:47.822Z,968.08
2019-05-14T12:00:47.793Z,968.10
2019-05-14T12:01:49.351Z,968.16
2019-05-14T12:02:47.748Z,968.09
2019-05-14T12:03:50.308Z,968.25
2019-05-14T12:04:47.703Z,968.28
2019-05-14T12:05:49.490Z,968.36
2019-05-14T12:06:47.661Z,968.20
2019-05-14T12:07:47.642Z,968.27
2019-05-14T12:08:47.619Z,968.14
2019-05-14T12:09:47.597Z,968.16
2019-05-14T12:10:47.575Z,968.11
2019-05-14T12:11:47.555Z,968.04
2019-05-14T12:12:48.922Z,968.06
2019-05-14T12:13:48.763Z,967.95
2019-05-14T12:14:48.455Z,967.95
2019-05-14T12:15:48.567Z,968.11
2019-05-14T12:16:49.365Z,968.08
2019-05-14T12:17:50.961Z,968.10
2019-05-14T12:18:48.329Z,968.09
2019-05-14T12:19:48.496Z,968.01
2019-05-14T12:20:49.718Z,967.97
2019-05-14T12:22:02.218Z,968.04
2019-05-14T12:22:48.717Z,968.07
2019-05-14T12:23:49.553Z,967.97
2019-05-14T12:24:49.202Z,968.11
2019-05-14T12:25:49.085Z,968.14
2019-05-14T12:26:49.079Z,968.18
2019-05-14T12:27:49.637Z,968.32